DAUL

Laghouat Airport

Laghouat, Algeria
METAR DAUL 152200Z 03006KT 9999 FEW030 28/10 Q1017
Observed Flight Rules
Aug-15 @ 22:00 UTC (27 minutes ago) Visual Flight Rules
Wind Visibility Clouds
30° at 6 knots 10,000+ meters
  • Few at 3,000' AGL
Temperatures Readings
Current 28°C / 82°F
Dewpoint 10°C / 50°F
Humidity 32%
Altimeter 30.03" Hg
Pressure 1017 hPa
Elevation 765
METAR DAUL 152200Z 03006KT 9999 FEW030 28/10 Q1017
Observed Flight Rules
Aug-15 @ 22:00 UTC
(27 minutes ago)
VFR
Wind Visibility
30° at 6 knots 10,000+ meters
Clouds
  • Few at 3,000' AGL
Temperature Dewpoint
28°C / 82°F 10°C / 50°F
Humidity Altimeter Pressure
32% 30.03" Hg 1017 hPa